createdAt,value
2023-05-22T00:02:00.122Z,19.25
2023-05-22T00:04:30.287Z,19.23
2023-05-22T00:07:00.173Z,19.07
2023-05-22T00:09:30.036Z,18.92
2023-05-22T00:11:59.982Z,18.95
2023-05-22T00:14:29.811Z,19.14
2023-05-22T00:17:00.185Z,19.36
2023-05-22T00:19:30.432Z,19.34
2023-05-22T00:22:00.610Z,19.25
2023-05-22T00:24:30.451Z,19.20
2023-05-22T00:27:00.678Z,19.05
2023-05-22T00:29:31.094Z,19.14
2023-05-22T00:32:01.265Z,19.17
2023-05-22T00:34:31.167Z,19.13
2023-05-22T00:37:01.134Z,19.24
2023-05-22T00:39:30.975Z,19.36
2023-05-22T00:42:01.468Z,19.15
2023-05-22T00:44:31.457Z,19.13
2023-05-22T00:47:01.631Z,19.14
2023-05-22T00:49:31.794Z,19.08
2023-05-22T00:52:02.503Z,19.10
2023-05-22T00:54:33.710Z,18.87
2023-05-22T00:57:04.445Z,18.89
2023-05-22T00:59:35.413Z,18.90
2023-05-22T01:02:07.071Z,18.84
2023-05-22T01:04:37.394Z,18.68
2023-05-22T01:07:07.649Z,18.85
2023-05-22T01:09:37.504Z,18.64
2023-05-22T01:12:30.246Z,18.81
2023-05-22T01:15:09.235Z,18.81
2023-05-22T01:17:42.191Z,18.89
2023-05-22T01:20:25.526Z,18.79
2023-05-22T01:23:16.236Z,18.79
2023-05-22T01:26:08.306Z,18.74
2023-05-22T01:29:06.576Z,18.61
2023-05-22T01:31:39.465Z,18.48
2023-05-22T01:34:13.166Z,18.63
2023-05-22T01:36:45.243Z,18.56
2023-05-22T01:39:16.531Z,18.54
2023-05-22T01:41:47.800Z,18.41
2023-05-22T01:44:17.755Z,18.37
2023-05-22T01:46:47.597Z,18.43
2023-05-22T01:49:18.197Z,18.33
2023-05-22T01:51:59.781Z,18.25
2023-05-22T01:54:39.841Z,18.25
2023-05-22T01:57:12.751Z,18.14
2023-05-22T01:59:52.490Z,18.10
2023-05-22T02:02:24.330Z,18.29
2023-05-22T02:04:59.903Z,18.39
2023-05-22T02:07:31.617Z,18.10
2023-05-22T02:10:03.115Z,17.91
2023-05-22T02:12:33.304Z,17.87
2023-05-22T02:15:06.329Z,18.22
2023-05-22T02:17:44.794Z,17.87
2023-05-22T02:20:16.157Z,17.67
2023-05-22T02:22:48.196Z,17.80
2023-05-22T02:25:18.158Z,17.94
2023-05-22T02:27:49.748Z,17.94
2023-05-22T02:30:19.325Z,17.75
2023-05-22T02:32:50.934Z,17.71
2023-05-22T02:35:21.149Z,17.73
2023-05-22T02:37:51.036Z,17.71
2023-05-22T02:40:20.957Z,17.86
2023-05-22T02:42:51.980Z,17.56
2023-05-22T02:45:22.037Z,17.56
2023-05-22T02:47:52.054Z,17.57
2023-05-22T02:50:21.773Z,17.52
2023-05-22T02:52:51.461Z,17.45
2023-05-22T02:55:21.472Z,17.34
2023-05-22T02:57:51.699Z,17.49
2023-05-22T03:00:22.253Z,17.47
2023-05-22T03:02:52.214Z,17.44
2023-05-22T03:05:22.021Z,17.27
2023-05-22T03:07:54.072Z,17.15
2023-05-22T03:10:24.670Z,17.26
2023-05-22T03:12:54.892Z,17.33
2023-05-22T03:15:24.681Z,17.19
2023-05-22T03:17:56.462Z,17.24
2023-05-22T03:20:26.477Z,17.07
2023-05-22T03:22:56.361Z,16.97
2023-05-22T03:25:26.189Z,17.03
2023-05-22T03:27:56.048Z,16.90
2023-05-22T03:30:26.840Z,17.01
2023-05-22T03:32:58.796Z,16.99
2023-05-22T03:35:28.622Z,16.91
2023-05-22T03:37:58.654Z,16.67
2023-05-22T03:40:28.215Z,16.81
2023-05-22T03:42:58.255Z,16.92
2023-05-22T03:45:28.134Z,16.95
2023-05-22T03:47:58.852Z,16.95
2023-05-22T03:50:28.860Z,17.05
2023-05-22T03:52:58.726Z,16.71
2023-05-22T03:55:30.734Z,16.71
2023-05-22T03:58:00.554Z,16.67
2023-05-22T04:00:31.663Z,16.70
2023-05-22T04:03:01.776Z,16.74
2023-05-22T04:05:32.331Z,16.90
2023-05-22T04:08:02.171Z,16.66
2023-05-22T04:10:31.902Z,16.86
2023-05-22T04:13:01.764Z,16.72
2023-05-22T04:15:32.945Z,16.60
2023-05-22T04:18:02.989Z,16.78
2023-05-22T04:20:33.214Z,16.85
2023-05-22T04:23:03.087Z,16.93
2023-05-22T04:25:34.273Z,17.10
2023-05-22T04:28:06.354Z,17.19
2023-05-22T04:30:38.262Z,17.20
2023-05-22T04:33:08.719Z,17.07
2023-05-22T04:35:40.653Z,17.35
2023-05-22T04:38:11.584Z,17.20
2023-05-22T04:40:41.714Z,17.33
2023-05-22T04:43:12.590Z,17.40
2023-05-22T04:45:42.896Z,17.45
2023-05-22T04:48:12.870Z,17.43
2023-05-22T04:50:44.412Z,17.43
2023-05-22T04:53:14.711Z,17.65
2023-05-22T04:55:45.966Z,17.59
2023-05-22T04:58:15.885Z,17.45
2023-05-22T05:00:45.792Z,17.35
2023-05-22T05:03:15.919Z,17.30
2023-05-22T05:05:45.978Z,17.29
2023-05-22T05:08:16.091Z,17.22
2023-05-22T05:10:46.095Z,16.60
2023-05-22T05:13:15.951Z,16.60
2023-05-22T05:15:47.687Z,16.52
2023-05-22T05:18:17.368Z,17.00
2023-05-22T05:20:47.287Z,16.86
2023-05-22T05:23:17.296Z,16.94
2023-05-22T05:25:46.863Z,16.94
2023-05-22T05:28:16.829Z,16.94
2023-05-22T05:30:46.940Z,16.99
2023-05-22T05:33:30.893Z,16.74
2023-05-22T05:36:18.500Z,16.54
2023-05-22T05:38:48.829Z,16.50
2023-05-22T05:41:19.177Z,17.14
2023-05-22T05:43:52.250Z,17.25
2023-05-22T05:46:22.049Z,17.37
2023-05-22T05:48:51.893Z,17.44
2023-05-22T05:51:22.207Z,17.43
2023-05-22T05:53:52.754Z,17.36
2023-05-22T05:56:22.861Z,17.02
2023-05-22T05:58:53.587Z,17.00
2023-05-22T06:01:39.937Z,17.09
2023-05-22T06:04:11.997Z,17.32
2023-05-22T06:06:42.353Z,17.19
2023-05-22T06:09:14.076Z,17.17
2023-05-22T06:12:01.629Z,17.51
2023-05-22T06:14:31.658Z,17.90
2023-05-22T06:17:01.312Z,17.77
2023-05-22T06:19:31.316Z,17.79
2023-05-22T06:22:01.280Z,18.15
2023-05-22T06:24:32.509Z,18.03
2023-05-22T06:27:04.057Z,17.86
2023-05-22T06:29:34.194Z,18.03
2023-05-22T06:32:06.723Z,18.07
2023-05-22T06:34:38.118Z,18.12
2023-05-22T06:37:08.568Z,18.14
2023-05-22T06:39:40.799Z,18.60
2023-05-22T06:42:28.404Z,18.17
2023-05-22T06:45:08.110Z,18.05
2023-05-22T06:47:39.738Z,17.91
2023-05-22T06:50:11.924Z,18.48
2023-05-22T06:52:41.540Z,18.48
2023-05-22T06:55:12.865Z,18.82
2023-05-22T06:57:44.798Z,18.80
2023-05-22T07:00:15.475Z,18.80
2023-05-22T07:02:56.104Z,18.88
2023-05-22T07:05:27.746Z,19.16
2023-05-22T07:07:59.334Z,19.22
2023-05-22T07:10:29.198Z,19.37
2023-05-22T07:13:00.023Z,19.29
2023-05-22T07:15:31.326Z,19.25
2023-05-22T07:18:03.036Z,19.50
2023-05-22T07:20:32.949Z,19.54
2023-05-22T07:23:04.588Z,19.36
2023-05-22T07:25:34.520Z,19.67
2023-05-22T07:28:08.121Z,20.06
2023-05-22T07:30:39.987Z,19.83
2023-05-22T07:33:10.222Z,19.99
2023-05-22T07:35:41.175Z,20.17
2023-05-22T07:38:11.723Z,20.24
2023-05-22T07:40:42.678Z,20.54
2023-05-22T07:43:14.521Z,20.41
2023-05-22T07:45:44.388Z,20.41
2023-05-22T07:48:15.130Z,20.78
2023-05-22T07:50:46.390Z,20.78
2023-05-22T07:53:16.354Z,20.93
2023-05-22T07:55:47.046Z,20.25
2023-05-22T07:58:17.023Z,20.25
2023-05-22T08:00:47.524Z,19.97
2023-05-22T08:03:18.063Z,19.92
2023-05-22T08:05:48.436Z,19.92
2023-05-22T08:08:18.176Z,19.88
2023-05-22T08:11:03.159Z,20.22
2023-05-22T08:13:20.862Z,19.93
2023-05-22T08:15:50.757Z,20.40
2023-05-22T08:18:22.441Z,20.77
2023-05-22T08:20:54.979Z,20.67
2023-05-22T08:23:24.979Z,21.17
2023-05-22T08:25:54.826Z,21.11
2023-05-22T08:28:24.564Z,20.77
2023-05-22T08:30:55.195Z,21.02
2023-05-22T08:33:25.177Z,20.88
2023-05-22T08:35:55.050Z,21.11
2023-05-22T08:38:24.752Z,20.85
2023-05-22T08:40:57.793Z,21.21
2023-05-22T08:43:31.453Z,21.86
2023-05-22T08:46:09.271Z,21.91
2023-05-22T08:48:41.507Z,21.89
2023-05-22T08:51:16.464Z,21.57
2023-05-22T08:53:49.340Z,21.63
2023-05-22T08:56:19.735Z,22.00
2023-05-22T08:58:51.499Z,22.54
2023-05-22T09:01:21.744Z,22.44
2023-05-22T09:03:52.901Z,22.41
2023-05-22T09:06:23.139Z,22.71
2023-05-22T09:08:53.311Z,22.90
2023-05-22T09:11:23.150Z,22.78
2023-05-22T09:13:53.280Z,22.60
2023-05-22T09:16:23.256Z,22.04
2023-05-22T09:18:53.103Z,22.47
2023-05-22T09:23:54.699Z,22.53
2023-05-22T09:26:27.498Z,21.97
2023-05-22T09:28:58.954Z,22.51
2023-05-22T09:31:30.783Z,22.31
2023-05-22T09:34:00.389Z,22.38
2023-05-22T09:36:34.182Z,22.56
2023-05-22T09:39:05.249Z,22.34
2023-05-22T09:41:39.974Z,22.34
2023-05-22T09:44:16.018Z,22.13
2023-05-22T09:46:48.712Z,22.39
2023-05-22T09:49:18.998Z,22.71
2023-05-22T09:51:49.895Z,23.58
2023-05-22T09:54:21.680Z,23.22
2023-05-22T09:56:53.448Z,23.17
2023-05-22T09:59:26.667Z,24.06
2023-05-22T10:01:57.232Z,24.54
2023-05-22T10:04:28.134Z,24.29
2023-05-22T10:07:00.856Z,24.30
2023-05-22T10:09:34.315Z,24.19
2023-05-22T10:12:09.035Z,24.67
2023-05-22T10:14:39.136Z,24.67
2023-05-22T10:17:11.231Z,24.23
2023-05-22T10:19:44.499Z,24.61
2023-05-22T10:22:16.935Z,25.32
2023-05-22T10:24:49.213Z,25.51
2023-05-22T10:27:19.062Z,25.66
2023-05-22T10:30:14.497Z,25.83
2023-05-22T10:33:11.539Z,25.81
2023-05-22T10:35:55.840Z,26.00
2023-05-22T10:39:00.060Z,26.12
2023-05-22T10:41:30.927Z,26.18
2023-05-22T10:44:00.804Z,27.22
2023-05-22T10:46:35.118Z,27.43
2023-05-22T10:49:05.097Z,27.75
2023-05-22T10:51:35.469Z,27.05
2023-05-22T10:54:06.537Z,27.03
2023-05-22T10:56:36.903Z,27.11
2023-05-22T10:59:08.472Z,27.50
2023-05-22T11:01:38.840Z,27.63
2023-05-22T11:04:16.155Z,27.69
2023-05-22T11:06:49.947Z,27.62
2023-05-22T11:09:37.510Z,27.64
2023-05-22T11:12:20.602Z,27.37
2023-05-22T11:14:52.282Z,27.54
2023-05-22T11:17:24.100Z,27.81
2023-05-22T11:20:08.202Z,27.49
2023-05-22T11:22:46.796Z,27.64
2023-05-22T11:25:21.013Z,27.69
2023-05-22T11:27:51.237Z,27.66
2023-05-22T11:30:23.149Z,27.98
2023-05-22T11:32:53.253Z,28.11
2023-05-22T11:35:23.813Z,28.60
2023-05-22T11:37:55.144Z,28.92
2023-05-22T11:40:26.199Z,28.69
2023-05-22T11:42:56.671Z,27.68
2023-05-22T11:45:27.573Z,27.55
2023-05-22T11:47:57.325Z,28.14
2023-05-22T11:50:41.051Z,27.96
2023-05-22T11:52:59.662Z,27.99
2023-05-22T11:55:29.526Z,27.79
2023-05-22T11:58:01.084Z,28.36
2023-05-22T12:00:32.472Z,28.62
2023-05-22T12:03:02.281Z,28.38
2023-05-22T12:05:33.618Z,29.08
2023-05-22T12:08:03.213Z,28.45
2023-05-22T12:10:33.053Z,28.27
2023-05-22T12:13:02.917Z,29.13
2023-05-22T12:15:32.470Z,28.27
2023-05-22T12:18:02.418Z,28.89
2023-05-22T12:20:32.610Z,28.89
2023-05-22T12:23:02.189Z,29.16
2023-05-22T12:25:39.805Z,29.46
2023-05-22T12:28:11.478Z,29.89
2023-05-22T12:30:42.686Z,28.93
2023-05-22T12:33:16.233Z,29.19
2023-05-22T12:35:46.153Z,29.19
2023-05-22T12:38:16.080Z,29.09
2023-05-22T12:40:46.495Z,29.43
2023-05-22T12:43:16.376Z,29.40
2023-05-22T12:45:46.301Z,29.86
2023-05-22T12:48:16.490Z,30.04
2023-05-22T12:50:46.965Z,29.79
2023-05-22T12:53:16.785Z,29.43
2023-05-22T12:55:46.647Z,28.98
2023-05-22T12:58:16.360Z,28.98
2023-05-22T13:00:46.288Z,29.42
2023-05-22T13:03:16.358Z,29.31
2023-05-22T13:05:46.126Z,29.33
2023-05-22T13:08:16.219Z,29.07
2023-05-22T13:10:46.138Z,28.69
2023-05-22T13:13:15.994Z,29.29
2023-05-22T13:15:46.437Z,28.88
2023-05-22T13:18:16.591Z,28.99
2023-05-22T13:20:46.446Z,29.11
2023-05-22T13:23:16.286Z,29.04
2023-05-22T13:25:46.130Z,28.82
2023-05-22T13:28:15.987Z,29.55
2023-05-22T13:30:45.916Z,29.34
2023-05-22T13:33:15.460Z,29.42
2023-05-22T13:35:45.455Z,29.32
2023-05-22T13:38:15.097Z,29.34
2023-05-22T13:40:46.919Z,29.75
2023-05-22T13:43:16.297Z,29.26
2023-05-22T13:45:46.169Z,28.93
2023-05-22T13:48:16.087Z,28.87
2023-05-22T13:50:46.001Z,28.86
2023-05-22T13:53:15.891Z,28.95
2023-05-22T13:55:46.121Z,29.20
2023-05-22T13:58:16.106Z,29.19
2023-05-22T14:00:46.319Z,29.14
2023-05-22T14:03:17.820Z,29.22
2023-05-22T14:05:48.137Z,29.45
2023-05-22T14:08:18.072Z,29.45
2023-05-22T14:10:47.995Z,29.62
2023-05-22T14:13:17.869Z,29.74
2023-05-22T14:15:47.800Z,28.94
2023-05-22T14:18:17.505Z,28.93
2023-05-22T14:20:47.752Z,29.82
2023-05-22T14:23:17.447Z,28.80
2023-05-22T14:25:47.649Z,28.64
2023-05-22T14:28:17.297Z,27.89
2023-05-22T14:30:47.310Z,27.77
2023-05-22T14:33:17.180Z,28.06
2023-05-22T14:35:48.381Z,28.06
2023-05-22T14:38:18.225Z,28.25
2023-05-22T14:40:48.117Z,27.64
2023-05-22T14:43:17.972Z,27.55
2023-05-22T14:45:47.873Z,27.27
2023-05-22T14:48:17.484Z,26.95
2023-05-22T14:50:48.442Z,26.83
2023-05-22T14:53:18.602Z,25.80
2023-05-22T14:55:48.762Z,25.74
2023-05-22T14:58:18.771Z,25.92
2023-05-22T15:00:48.674Z,25.55
2023-05-22T15:03:19.053Z,25.11
2023-05-22T15:05:49.161Z,25.19
2023-05-22T15:08:20.454Z,25.19
2023-05-22T15:10:50.461Z,25.23
2023-05-22T15:13:21.397Z,25.17
2023-05-22T15:15:51.622Z,25.11
2023-05-22T15:18:21.209Z,25.35
2023-05-22T15:20:51.142Z,26.00
2023-05-22T15:23:23.826Z,26.40
2023-05-22T15:25:54.619Z,26.51
2023-05-22T15:28:24.518Z,27.13
2023-05-22T15:30:54.358Z,27.17
2023-05-22T15:33:24.227Z,27.63
2023-05-22T15:35:54.057Z,27.82
2023-05-22T15:38:24.193Z,27.65
2023-05-22T15:40:54.502Z,27.76
2023-05-22T15:43:26.027Z,27.43
2023-05-22T15:45:56.008Z,27.77
2023-05-22T15:48:25.964Z,27.52
2023-05-22T15:50:55.845Z,26.87
2023-05-22T15:53:25.845Z,26.70
2023-05-22T15:55:55.699Z,26.62
2023-05-22T15:58:25.550Z,26.60
2023-05-22T16:00:58.238Z,26.38
2023-05-22T16:03:28.245Z,26.02
2023-05-22T16:05:58.171Z,25.87
2023-05-22T16:08:27.999Z,26.27
2023-05-22T16:10:59.789Z,26.35
2023-05-22T16:13:30.019Z,26.78
2023-05-22T16:15:59.894Z,26.54
2023-05-22T16:18:29.786Z,26.80
2023-05-22T16:20:59.621Z,26.54
2023-05-22T16:23:29.479Z,26.77
2023-05-22T16:25:59.327Z,27.04
2023-05-22T16:28:29.169Z,26.79
2023-05-22T16:30:59.083Z,26.77
2023-05-22T16:33:28.940Z,26.99
2023-05-22T16:35:59.084Z,26.83
2023-05-22T16:38:28.926Z,27.04
2023-05-22T16:40:58.768Z,26.40
2023-05-22T16:43:28.790Z,26.68
2023-05-22T16:45:58.643Z,26.82
2023-05-22T16:48:28.547Z,26.61
2023-05-22T16:50:58.514Z,26.44
2023-05-22T16:53:28.376Z,27.02
2023-05-22T16:55:59.706Z,26.34
2023-05-22T16:58:29.558Z,26.85
2023-05-22T17:00:59.596Z,26.64
2023-05-22T17:03:29.546Z,26.44
2023-05-22T17:05:59.587Z,26.47
2023-05-22T17:08:29.705Z,26.47
2023-05-22T17:10:59.557Z,26.02
2023-05-22T17:13:29.496Z,26.43
2023-05-22T17:15:59.697Z,26.38
2023-05-22T17:18:29.821Z,25.86
2023-05-22T17:21:00.305Z,26.19
2023-05-22T17:23:30.448Z,26.38
2023-05-22T17:26:01.001Z,26.22
2023-05-22T17:28:31.250Z,26.35
2023-05-22T17:31:01.243Z,26.52
2023-05-22T17:33:31.860Z,26.84
2023-05-22T17:36:01.924Z,26.54
2023-05-22T17:38:31.776Z,26.97
2023-05-22T17:41:01.484Z,27.09
2023-05-22T17:43:33.009Z,27.26
2023-05-22T17:46:03.574Z,27.58
2023-05-22T17:48:34.415Z,28.19
2023-05-22T17:51:04.389Z,27.99
2023-05-22T17:53:35.705Z,27.38
2023-05-22T17:56:07.032Z,27.07
2023-05-22T17:58:36.604Z,25.47
2023-05-22T18:01:06.477Z,25.47
2023-05-22T18:03:36.466Z,24.57
2023-05-22T18:06:08.348Z,24.21
2023-05-22T18:08:39.805Z,23.72
2023-05-22T18:11:09.636Z,23.63
2023-05-22T18:13:39.512Z,23.24
2023-05-22T18:16:11.207Z,23.24
2023-05-22T18:18:41.079Z,23.26
2023-05-22T18:21:11.464Z,23.24
2023-05-22T18:23:41.733Z,23.06
2023-05-22T18:26:12.997Z,22.65
2023-05-22T18:28:42.867Z,22.35
2023-05-22T18:31:13.041Z,22.66
2023-05-22T18:33:44.373Z,22.75
2023-05-22T18:36:14.331Z,22.22
2023-05-22T18:38:44.179Z,22.22
2023-05-22T18:41:14.382Z,22.28
2023-05-22T18:43:44.238Z,22.20
2023-05-22T18:46:14.075Z,22.21
2023-05-22T18:48:43.952Z,22.03
2023-05-22T18:51:13.796Z,21.98
2023-05-22T18:53:44.168Z,21.95
2023-05-22T18:56:16.273Z,21.95
2023-05-22T18:58:46.132Z,22.03
2023-05-22T19:01:17.262Z,22.15
2023-05-22T19:03:47.147Z,21.98
2023-05-22T19:06:18.768Z,21.97
2023-05-22T19:08:48.624Z,21.85
2023-05-22T19:11:18.538Z,21.71
2023-05-22T19:13:48.377Z,21.59
2023-05-22T19:16:18.460Z,21.42
2023-05-22T19:18:48.337Z,21.31
2023-05-22T19:21:18.251Z,21.30
2023-05-22T19:23:48.658Z,21.25
2023-05-22T19:26:18.279Z,21.31
2023-05-22T19:28:48.373Z,21.11
2023-05-22T19:31:18.181Z,20.84
2023-05-22T19:33:48.097Z,21.00
2023-05-22T19:36:18.198Z,21.00
2023-05-22T19:38:48.268Z,20.94
2023-05-22T19:41:18.143Z,20.94
2023-05-22T19:43:47.973Z,20.75
2023-05-22T19:46:17.828Z,20.71
2023-05-22T19:48:47.683Z,20.57
2023-05-22T19:51:17.536Z,20.54
2023-05-22T19:53:47.441Z,20.56
2023-05-22T19:56:17.311Z,20.52
2023-05-22T19:58:47.161Z,20.49
2023-05-22T20:01:17.616Z,20.37
2023-05-22T20:03:47.834Z,20.13
2023-05-22T20:06:17.617Z,20.13
2023-05-22T20:08:47.759Z,19.96
2023-05-22T20:11:17.603Z,19.94
2023-05-22T20:13:47.442Z,19.83
2023-05-22T20:16:17.391Z,19.77
2023-05-22T20:18:48.700Z,19.65
2023-05-22T20:21:19.134Z,19.65
2023-05-22T20:23:48.983Z,19.75
2023-05-22T20:26:19.712Z,19.55
2023-05-22T20:28:49.560Z,19.67
2023-05-22T20:31:19.723Z,19.67
2023-05-22T20:33:49.626Z,19.65
2023-05-22T20:36:19.178Z,19.63
2023-05-22T20:38:49.006Z,19.52
2023-05-22T20:41:19.620Z,19.53
2023-05-22T20:43:50.361Z,19.38
2023-05-22T20:46:20.307Z,19.32
2023-05-22T20:48:51.340Z,19.29
2023-05-22T20:51:21.466Z,19.35
2023-05-22T20:53:53.363Z,19.18
2023-05-22T20:56:23.243Z,19.18
2023-05-22T20:58:53.105Z,19.17
2023-05-22T21:01:24.274Z,19.22
2023-05-22T21:03:56.649Z,19.22
2023-05-22T21:06:26.404Z,19.12
2023-05-22T21:08:58.072Z,19.23
2023-05-22T21:11:28.450Z,19.17
2023-05-22T21:13:58.670Z,19.39
2023-05-22T21:16:28.248Z,19.50
2023-05-22T21:18:58.180Z,19.09
2023-05-22T21:21:28.163Z,19.09
2023-05-22T21:23:57.997Z,19.23
2023-05-22T21:26:27.826Z,18.88
2023-05-22T21:28:57.840Z,18.80
2023-05-22T21:31:27.747Z,18.95
2023-05-22T21:33:57.607Z,18.96
2023-05-22T21:36:27.161Z,18.92
2023-05-22T21:38:58.667Z,18.77
2023-05-22T21:41:28.728Z,18.71
2023-05-22T21:43:59.404Z,18.80
2023-05-22T21:46:28.963Z,18.91
2023-05-22T21:48:58.816Z,18.87
2023-05-22T21:51:28.652Z,18.65
2023-05-22T21:53:58.488Z,18.46
2023-05-22T21:56:28.320Z,18.34
2023-05-22T21:58:58.476Z,18.35
2023-05-22T22:01:28.327Z,18.35
2023-05-22T22:03:58.206Z,18.44
2023-05-22T22:06:28.116Z,18.30
2023-05-22T22:08:59.665Z,18.30
2023-05-22T22:11:29.918Z,18.28
2023-05-22T22:13:59.759Z,17.84
2023-05-22T22:16:29.331Z,17.68
2023-05-22T22:19:01.132Z,17.61
2023-05-22T22:21:32.729Z,17.61
2023-05-22T22:24:02.667Z,17.64
2023-05-22T22:26:32.962Z,17.76
2023-05-22T22:29:03.081Z,17.89
2023-05-22T22:31:33.301Z,17.75
2023-05-22T22:34:04.852Z,17.93
2023-05-22T22:36:35.546Z,18.04
2023-05-22T22:39:05.228Z,18.12
2023-05-22T22:41:34.814Z,17.87
2023-05-22T22:44:04.704Z,17.96
2023-05-22T22:46:34.672Z,17.71
2023-05-22T22:49:04.877Z,17.46
2023-05-22T22:51:34.708Z,17.67
2023-05-22T22:54:04.641Z,17.75
2023-05-22T22:56:34.620Z,17.67
2023-05-22T22:59:04.473Z,17.81
2023-05-22T23:01:34.511Z,17.92
2023-05-22T23:04:04.467Z,17.55
2023-05-22T23:06:35.140Z,17.35
2023-05-22T23:09:05.160Z,17.43
2023-05-22T23:11:37.859Z,17.43
2023-05-22T23:14:09.740Z,17.25
2023-05-22T23:16:42.797Z,17.45
2023-05-22T23:19:13.672Z,17.41
2023-05-22T23:21:43.211Z,17.48
2023-05-22T23:24:12.797Z,17.58
2023-05-22T23:26:42.650Z,17.55
2023-05-22T23:29:13.195Z,17.23
2023-05-22T23:31:43.043Z,17.23
2023-05-22T23:34:13.169Z,17.17
2023-05-22T23:36:43.491Z,17.06
2023-05-22T23:39:13.654Z,16.98
2023-05-22T23:41:44.371Z,17.30
2023-05-22T23:44:14.537Z,16.89
2023-05-22T23:46:44.466Z,16.83
2023-05-22T23:49:14.803Z,16.85
2023-05-22T23:51:44.638Z,17.12
2023-05-22T23:54:14.430Z,17.14
2023-05-22T23:56:44.985Z,17.15
2023-05-22T23:59:15.727Z,17.29
